createdAt,value
2019-02-27T00:02:45.181Z,73.52
2019-02-27T00:07:48.326Z,73.37
2019-02-27T00:12:52.014Z,73.58
2019-02-27T00:17:55.680Z,73.87
2019-02-27T00:22:58.702Z,73.89
2019-02-27T00:28:01.803Z,73.66
2019-02-27T00:33:05.376Z,73.64
2019-02-27T00:38:08.577Z,74.37
2019-02-27T00:43:28.434Z,74.04
2019-02-27T00:48:32.247Z,73.46
2019-02-27T00:53:35.323Z,72.49
2019-02-27T00:58:38.509Z,73.82
2019-02-27T01:03:41.669Z,73.10
2019-02-27T01:08:45.190Z,73.39
2019-02-27T01:13:48.393Z,73.16
2019-02-27T01:18:51.363Z,73.96
2019-02-27T01:23:54.648Z,73.63
2019-02-27T01:28:57.648Z,74.73
2019-02-27T01:34:00.721Z,74.87
2019-02-27T01:39:09.012Z,74.94
2019-02-27T01:44:13.702Z,75.69
2019-02-27T01:49:16.816Z,75.82
2019-02-27T01:54:20.075Z,76.58
2019-02-27T01:59:23.439Z,76.02
2019-02-27T02:04:26.685Z,77.37
2019-02-27T02:09:35.893Z,78.04
2019-02-27T02:15:16.834Z,79.26
2019-02-27T02:20:46.671Z,80.73
2019-02-27T02:26:23.727Z,80.97
2019-02-27T02:32:04.976Z,81.68
2019-02-27T02:38:14.213Z,80.41
2019-02-27T02:44:36.634Z,81.10
2019-02-27T02:50:29.201Z,82.47
2019-02-27T02:56:24.967Z,82.68
2019-02-27T03:01:57.819Z,83.78
2019-02-27T03:07:50.087Z,83.39
2019-02-27T03:13:45.779Z,83.94
2019-02-27T03:19:41.727Z,83.86
2019-02-27T03:25:40.112Z,82.47
2019-02-27T03:31:39.180Z,82.78
2019-02-27T03:37:21.504Z,82.60
2019-02-27T03:43:24.297Z,83.73
2019-02-27T03:49:17.040Z,84.94
2019-02-27T03:54:45.478Z,85.76
2019-02-27T04:00:52.593Z,86.68
2019-02-27T04:07:14.616Z,86.33
2019-02-27T04:12:17.662Z,86.13
2019-02-27T04:17:26.921Z,86.08
2019-02-27T04:22:29.979Z,86.13
2019-02-27T04:27:32.906Z,86.11
2019-02-27T04:32:35.929Z,86.09
2019-02-27T04:37:39.059Z,85.77
2019-02-27T04:42:42.041Z,85.09
2019-02-27T04:47:44.988Z,85.27
2019-02-27T04:52:48.072Z,85.35
2019-02-27T04:57:51.117Z,85.25
2019-02-27T05:02:54.178Z,83.62
2019-02-27T05:07:57.387Z,82.74
2019-02-27T05:13:00.386Z,84.25
2019-02-27T05:18:03.507Z,86.91
2019-02-27T05:23:06.481Z,87.54
2019-02-27T05:28:09.549Z,87.92
2019-02-27T05:33:12.608Z,87.02
2019-02-27T05:38:15.801Z,85.95
2019-02-27T05:43:18.795Z,83.56
2019-02-27T05:48:21.886Z,82.53
2019-02-27T05:53:24.891Z,83.00
2019-02-27T05:58:28.079Z,83.48
2019-02-27T06:03:31.074Z,84.50
2019-02-27T06:08:36.694Z,82.22
2019-02-27T06:13:39.589Z,80.84
2019-02-27T06:18:43.071Z,80.77
2019-02-27T06:23:46.119Z,83.36
2019-02-27T06:28:49.226Z,82.98
2019-02-27T06:33:52.326Z,84.10
2019-02-27T06:39:00.150Z,83.77
2019-02-27T06:44:01.513Z,84.17
2019-02-27T06:49:05.777Z,83.81
2019-02-27T06:54:08.968Z,83.89
2019-02-27T06:59:11.955Z,83.23
2019-02-27T07:04:15.047Z,83.26
2019-02-27T07:09:18.079Z,83.45
2019-02-27T07:14:21.409Z,82.48
2019-02-27T07:19:24.392Z,81.89
2019-02-27T07:24:27.445Z,81.37
2019-02-27T07:29:30.454Z,81.58
2019-02-27T07:34:33.437Z,80.42
2019-02-27T07:39:36.400Z,80.06
2019-02-27T07:44:39.554Z,80.10
2019-02-27T07:49:42.591Z,79.32
2019-02-27T07:54:45.953Z,78.68
2019-02-27T07:59:49.095Z,78.38
2019-02-27T08:04:54.724Z,77.96
2019-02-27T08:09:57.360Z,77.80
2019-02-27T08:15:00.336Z,77.28
2019-02-27T08:20:04.045Z,77.00
2019-02-27T08:25:08.791Z,76.24
2019-02-27T08:30:15.658Z,75.48
2019-02-27T08:35:18.700Z,75.11
2019-02-27T08:40:24.356Z,73.88
2019-02-27T08:45:27.111Z,73.96
2019-02-27T08:50:31.765Z,73.49
2019-02-27T08:55:39.024Z,73.78
2019-02-27T09:00:40.499Z,73.75
2019-02-27T09:05:43.545Z,73.71
2019-02-27T09:10:46.588Z,72.84
2019-02-27T09:15:49.541Z,72.50
2019-02-27T09:20:53.532Z,71.75
2019-02-27T09:25:57.645Z,71.56
2019-02-27T09:31:04.298Z,71.73
2019-02-27T09:36:08.037Z,72.08
2019-02-27T09:41:12.406Z,72.62
2019-02-27T09:46:19.297Z,73.54
2019-02-27T09:51:22.179Z,74.67
2019-02-27T09:56:29.219Z,73.93
2019-02-27T10:01:34.163Z,73.70
2019-02-27T10:06:35.850Z,73.74
2019-02-27T10:11:38.800Z,73.84
2019-02-27T10:16:41.856Z,72.82
2019-02-27T10:21:45.386Z,73.80
2019-02-27T10:26:48.505Z,73.86
2019-02-27T10:31:51.492Z,73.77
2019-02-27T10:36:54.664Z,75.15
2019-02-27T10:41:57.726Z,73.95
2019-02-27T10:47:00.841Z,73.12
2019-02-27T10:52:03.924Z,72.95
2019-02-27T10:57:06.944Z,73.12
2019-02-27T11:02:12.519Z,71.72
2019-02-27T11:07:15.903Z,70.15
2019-02-27T11:12:19.826Z,69.36
2019-02-27T11:17:22.767Z,68.87
2019-02-27T11:22:25.753Z,68.16
2019-02-27T11:27:28.775Z,67.85
2019-02-27T11:32:31.764Z,66.97
2019-02-27T11:37:34.982Z,66.87
2019-02-27T11:42:37.957Z,66.42
2019-02-27T11:47:45.075Z,66.47
2019-02-27T11:52:49.058Z,66.44
2019-02-27T11:57:51.283Z,66.27
2019-02-27T12:02:54.283Z,65.55
2019-02-27T12:07:57.516Z,65.61
2019-02-27T12:13:01.302Z,63.98
2019-02-27T12:18:04.882Z,64.79
2019-02-27T12:23:10.086Z,64.07
2019-02-27T12:28:15.231Z,63.40
2019-02-27T12:33:18.312Z,62.88
2019-02-27T12:38:21.368Z,63.20
2019-02-27T12:43:24.427Z,63.65
2019-02-27T12:48:27.419Z,63.05
2019-02-27T12:53:30.517Z,62.42
2019-02-27T12:58:33.601Z,61.53
2019-02-27T13:03:36.719Z,61.88
2019-02-27T13:08:39.856Z,61.25
2019-02-27T13:13:43.280Z,61.40
2019-02-27T13:18:46.588Z,60.57
2019-02-27T13:23:49.633Z,60.92
2019-02-27T13:28:52.973Z,61.08
2019-02-27T13:33:56.290Z,61.31
2019-02-27T13:38:59.490Z,61.12
2019-02-27T13:44:02.697Z,61.20
2019-02-27T13:49:05.643Z,61.10
2019-02-27T13:54:09.012Z,61.70
2019-02-27T13:59:12.065Z,62.04
2019-02-27T14:04:15.118Z,61.87
2019-02-27T14:09:19.088Z,61.78
2019-02-27T14:14:22.461Z,61.82
2019-02-27T14:19:25.583Z,61.64
2019-02-27T14:24:28.656Z,61.05
2019-02-27T14:29:32.034Z,61.01
2019-02-27T14:34:35.451Z,61.47
2019-02-27T14:39:38.555Z,61.68
2019-02-27T14:44:41.570Z,61.25
2019-02-27T14:49:44.644Z,60.92
2019-02-27T14:54:47.957Z,60.39
2019-02-27T14:59:51.293Z,61.17
2019-02-27T15:04:54.389Z,61.06
2019-02-27T15:09:57.474Z,61.43
2019-02-27T15:15:00.450Z,61.85
2019-02-27T15:20:05.617Z,62.39
2019-02-27T15:25:11.655Z,62.89
2019-02-27T15:30:18.076Z,62.16
2019-02-27T15:35:22.193Z,62.24
2019-02-27T15:40:28.565Z,63.00
2019-02-27T15:45:30.992Z,62.91
2019-02-27T15:50:34.208Z,62.14
2019-02-27T15:55:37.958Z,61.03
2019-02-27T16:00:41.076Z,61.70
2019-02-27T16:05:44.171Z,61.53
2019-02-27T16:10:54.530Z,61.10
2019-02-27T16:15:52.520Z,61.47
2019-02-27T16:20:55.969Z,61.46
2019-02-27T16:25:58.965Z,61.64
2019-02-27T16:31:05.911Z,62.00
2019-02-27T16:36:07.433Z,62.61
2019-02-27T16:41:10.956Z,62.92
2019-02-27T16:46:14.098Z,63.71
2019-02-27T16:51:17.298Z,63.64
2019-02-27T16:56:20.471Z,63.43
2019-02-27T17:01:29.174Z,63.92
2019-02-27T17:06:29.173Z,63.54
2019-02-27T17:11:33.212Z,63.17
2019-02-27T17:16:38.421Z,63.21
2019-02-27T17:21:41.769Z,63.16
2019-02-27T17:26:46.423Z,63.26
2019-02-27T17:31:52.639Z,63.03
2019-02-27T17:36:54.847Z,63.85
2019-02-27T17:41:57.929Z,63.62
2019-02-27T17:47:00.974Z,64.08
2019-02-27T17:52:11.092Z,63.60
2019-02-27T17:57:09.213Z,63.24
2019-02-27T18:02:12.386Z,63.32
2019-02-27T18:07:15.780Z,63.04
2019-02-27T18:12:18.837Z,62.93
2019-02-27T18:17:21.959Z,62.44
2019-02-27T18:22:24.927Z,63.24
2019-02-27T18:27:28.019Z,62.77
2019-02-27T18:32:31.013Z,62.96
2019-02-27T18:37:33.995Z,63.09
2019-02-27T18:42:37.028Z,62.41
2019-02-27T18:47:40.115Z,61.60
2019-02-27T18:52:43.388Z,61.64
2019-02-27T18:57:47.598Z,62.10
2019-02-27T19:02:53.260Z,61.39
2019-02-27T19:07:56.320Z,62.46
2019-02-27T19:13:00.767Z,63.01
2019-02-27T19:18:06.543Z,64.05
2019-02-27T19:23:10.232Z,64.63
2019-02-27T19:28:13.323Z,63.82
2019-02-27T19:33:16.435Z,63.15
2019-02-27T19:38:19.452Z,63.10
2019-02-27T19:43:22.593Z,63.46
2019-02-27T19:48:26.256Z,63.78
2019-02-27T19:53:30.482Z,64.29
2019-02-27T19:58:33.678Z,64.17
2019-02-27T20:03:36.980Z,64.17
2019-02-27T20:08:44.392Z,64.68
2019-02-27T20:13:45.140Z,65.08
2019-02-27T20:18:54.780Z,65.22
2019-02-27T20:23:53.344Z,66.36
2019-02-27T20:28:56.325Z,67.84
2019-02-27T20:33:59.301Z,67.13
2019-02-27T20:39:04.168Z,66.54
2019-02-27T20:44:07.167Z,66.31
2019-02-27T20:49:10.466Z,66.15
2019-02-27T20:54:15.430Z,66.25
2019-02-27T20:59:18.957Z,66.41
2019-02-27T21:04:22.124Z,66.55
2019-02-27T21:09:25.269Z,66.29
2019-02-27T21:14:28.269Z,65.53
2019-02-27T21:19:33.854Z,64.64
2019-02-27T21:24:37.334Z,64.01
2019-02-27T21:29:43.380Z,64.70
2019-02-27T21:34:46.275Z,65.64
2019-02-27T21:39:49.331Z,64.26
2019-02-27T21:44:52.547Z,64.23
2019-02-27T21:49:55.522Z,62.04
2019-02-27T21:54:58.500Z,60.71
2019-02-27T22:00:01.493Z,58.11
2019-02-27T22:05:05.434Z,57.46
2019-02-27T22:10:10.298Z,57.98
2019-02-27T22:15:25.871Z,58.49
2019-02-27T22:20:28.823Z,57.80
2019-02-27T22:25:31.877Z,58.58
2019-02-27T22:30:34.948Z,59.29
2019-02-27T22:35:38.614Z,60.14
2019-02-27T22:40:41.881Z,61.03
2019-02-27T22:45:44.841Z,61.29
2019-02-27T22:50:47.996Z,61.72
2019-02-27T22:55:51.047Z,61.41
2019-02-27T23:01:11.127Z,62.28
2019-02-27T23:06:14.378Z,63.00
2019-02-27T23:11:18.199Z,62.54
2019-02-27T23:16:21.227Z,62.63
2019-02-27T23:21:26.638Z,61.78
2019-02-27T23:26:48.202Z,60.71
2019-02-27T23:31:51.148Z,60.65
2019-02-27T23:36:55.828Z,60.71
2019-02-27T23:41:59.425Z,60.89
2019-02-27T23:47:02.536Z,61.21
2019-02-27T23:52:05.510Z,61.48
2019-02-27T23:57:08.649Z,62.28
